Αρχική σελίδα
METAR-TAF:

METAR-TAF

Αεροδρόμια :

Νιαμέυ, Νίγηρας

γεωγραφικό πλάτος: 13-29N, γεωγραφικό μήκος: 002-10E, υψόμετρο: 223 μ

Παρών καιρός

Η αναφορά έγινε 27 λεπτά πριν, στις 19:00 UTC
Άνεμος 5 kt από BA
Θερμοκρασία 31°C
Υγρασία 15%
Πίεση 1011 hPa
Ορατότητα: 2800 μ
εκτεταμένη σκόνη

METAR: DRRN 181900Z 04005KT 2800 DU NSC 31/01 Q1011 NOSIG

Χρόνος: 20:27 (19:27 UTC)

Πρόγνωση Καιρού

Η αναφορά έγινε 2 ώρες και 27 λεπτά πριν, στις 17:00 UTC
Η πρόγνωση ισχύει από τις 18 στις 18 UTC έως τις 19 στις 24 UTC
Άνεμος 5 kt από Α
Ορατότητα: 4000 μ
εκτεταμένη σκόνη
Καθιστάμενος
από 18 στις 22 UTC έως τις 18 στις 24 UTC
Ορατότητα: 6000 μ
Προσωρινά
από 19 στις 06 UTC έως τις 19 στις 08 UTC
Ορατότητα: 4000 μ
εκτεταμένη σκόνη

TAF: DRRN 181700Z 1818/1924 08005KT 4000 DU NSC BECMG 1822/1824 6000 NSW TEMPO 1906/1908 4000 DU

Μετεωρολογικές αναφορές και προγνώσεις για περισσότερα από 4000 αεροδρόμια (δελτία METAR και TAF).

Οι διαθέσιμοι σταθμοί απεικονίζονται στο χάρτη με κίτρινες και κόκκινες κουκκίδες.

Μετακινήστε το ποντίκι πάνω από τις κουκκίδες για να δείτε το όνομα του σταθμού.

Στη συνέχεια, κάντε κλικ για να δείτε τις μετεωρολογικές αναφορές και τις προγνώσεις καιρού.

Για να αλλάξετε το χάρτη: κάντε κλικ στα πράσινα κουμπιά με τον μαύρο σταυρό για να ζουμάρετε, στο πράσινο κουμπί με την παύλα για να αφαιρέσετε το ζουμ ή στα πράσινα βέλη για να αντιπαραβάλλετε χάρτες.


METAR-TAF: